Site contains unofficial IBTrACS data. Visit the IBTrACS Website to access archived data.

1935 NOT_NAMED (1935065S13124)


IBTrACS version v04r00. Visit IBTrACS website for data access.
Please direct all questions to the IBTrACS Q and A forum

Storm track - Intensity - Wind Radii - Intensity Data - Source Data - All data

Summary Information

Storm ID 1935065S13124
Start Mar 5 23Z
End Mar 15 23Z
ATCF IDs
Track status Best track data.

Storm track plot

Map of storm track

Intensity plots

No Intensity information for this storm


Radial wind information

No radial wind information for this storm


Position and Intensity Table

BASIN ISO_TIME_________ NATURE LAT LON
degrees north degrees east
SI 1935-03-05 23:00:00 NR -13.00 124.10
SI 1935-03-06 00:00:00 NR -13.08 124.10
SI 01:00:00 NR -13.20 124.10
SI 03:00:00 NR -13.35 124.08
SI 06:00:00 NR -13.57 124.04
SI 09:00:00 NR -13.77 123.98
SI 11:00:00 NR -13.89 123.94
SI 12:00:00 NR -13.95 123.92
SI 15:00:00 NR -14.11 123.82
SI 18:00:00 NR -14.26 123.70
SI 21:00:00 NR -14.39 123.54
SI 23:00:00 NR -14.47 123.41
SI 1935-03-07 00:00:00 NR -14.50 123.33
SI 01:00:00 NR -14.54 123.25
SI 03:00:00 NR -14.61 123.08
SI 06:00:00 NR -14.70 122.78
SI 09:00:00 NR -14.77 122.45
SI 11:00:00 NR -14.82 122.22
SI 12:00:00 NR -14.83 122.10
SI 15:00:00 NR -14.86 121.73
SI 18:00:00 NR -14.90 121.35
SI 21:00:00 NR -14.96 120.95
SI 23:00:00 NR -15.02 120.67
SI 1935-03-08 00:00:00 NR -15.07 120.54
SI 01:00:00 NR -15.12 120.41
SI 03:00:00 NR -15.24 120.14
SI 06:00:00 NR -15.45 119.73
SI 09:00:00 NR -15.69 119.30
SI 11:00:00 NR -15.86 118.99
SI 12:00:00 NR -15.95 118.82
SI 15:00:00 NR -16.25 118.30
SI 18:00:00 NR -16.55 117.77
SI 21:00:00 NR -16.83 117.26
SI 23:00:00 NR -16.99 116.95
SI 1935-03-09 00:00:00 NR -17.06 116.81
SI 01:00:00 NR -17.11 116.68
SI 03:00:00 NR -17.22 116.43
SI 06:00:00 NR -17.36 116.07
SI 09:00:00 NR -17.47 115.73
SI 11:00:00 NR -17.54 115.51
SI 12:00:00 NR -17.58 115.39
SI 15:00:00 NR -17.69 115.03
SI 18:00:00 NR -17.78 114.68
SI 21:00:00 NR -17.87 114.34
SI 23:00:00 NR -17.93 114.12
SI 1935-03-10 00:00:00 NR -17.96 114.02
SI 01:00:00 NR -17.99 113.92
SI 03:00:00 NR -18.03 113.72
SI 06:00:00 NR -18.10 113.44
SI 09:00:00 NR -18.17 113.17
SI 11:00:00 NR -18.22 113.00
SI 12:00:00 NR -18.24 112.91
SI 15:00:00 NR -18.30 112.66
SI 18:00:00 NR -18.36 112.42
SI 21:00:00 NR -18.45 112.20
SI 23:00:00 NR -18.51 112.06
SI 1935-03-11 00:00:00 NR -18.55 111.99
SI 01:00:00 NR -18.59 111.93
SI 03:00:00 NR -18.67 111.79
SI 06:00:00 NR -18.81 111.59
SI 09:00:00 NR -18.97 111.41
SI 11:00:00 NR -19.08 111.31
SI 12:00:00 NR -19.14 111.25
SI 15:00:00 NR -19.34 111.11
SI 18:00:00 NR -19.55 110.99
SI 21:00:00 NR -19.76 110.88
SI 23:00:00 NR -19.90 110.83
SI 1935-03-12 00:00:00 NR -19.95 110.80
SI 01:00:00 NR -20.01 110.77
SI 03:00:00 NR -20.13 110.73
SI 06:00:00 NR -20.29 110.68
SI 07:00:00 NR -20.34 110.67
SI 09:00:00 NR -20.44 110.65
SI 11:00:00 NR -20.54 110.63
SI 12:00:00 NR -20.59 110.63
SI 15:00:00 NR -20.72 110.62
SI 18:00:00 NR -20.87 110.62
SI 21:00:00 NR -21.05 110.63
SI 23:00:00 NR -21.21 110.65
SI 1935-03-13 00:00:00 NR -21.31 110.66
SI 01:00:00 NR -21.41 110.67
SI 03:00:00 NR -21.65 110.69
SI 06:00:00 NR -22.04 110.72
SI 09:00:00 NR -22.47 110.74
SI 11:00:00 NR -22.76 110.75
SI 12:00:00 NR -22.91 110.75
SI 15:00:00 NR -23.36 110.73
SI 18:00:00 NR -23.80 110.70
SI 21:00:00 NR -24.19 110.67
SI 23:00:00 NR -24.41 110.65
SI 1935-03-14 00:00:00 NR -24.50 110.64
SI 01:00:00 NR -24.58 110.64
SI 03:00:00 NR -24.71 110.63
SI 06:00:00 NR -24.85 110.62
SI 09:00:00 NR -24.97 110.61
SI 11:00:00 NR -25.04 110.60
SI 12:00:00 NR -25.07 110.60
SI 15:00:00 NR -25.17 110.58
SI 18:00:00 NR -25.28 110.56
SI 21:00:00 NR -25.43 110.53
SI 23:00:00 NR -25.61 110.49
SI 1935-03-15 00:00:00 NR -25.77 110.43
SI 01:00:00 NR -25.99 110.36
SI 03:00:00 NR -26.47 110.17
SI 06:00:00 NR -27.03 109.99
SI 09:00:00 NR -27.66 109.85
SI 11:00:00 NR -28.10 109.80
SI 12:00:00 NR -28.32 109.79
SI 15:00:00 NR -28.99 109.84
SI 18:00:00 NR -29.67 109.98
SI 21:00:00 NR -30.35 110.16
SI 23:00:00 NR -30.80 110.30

Source Information

Agency Information
USA
TOKYO
CMA
HKO
NEWDELHI
REUNION
BOM IDCKMSTM0S.csv:Line=865:unnamed
NADI
WELLINGTON
DS824
TD9636 cons_worldwide_trop_cyclone_18710101-19891231-006:Line=2028
TD9635
NEUMANN
MLC

All available IBTrACS Data

SEASON BASIN SUBBASIN ISO_TIME_________ NATURE LAT LON WMO AGENCY DIST2LAND LANDFALL IFLAG USA SSHS BOM LAT BOM LON TD9636 LAT TD9636 LON TD9636 STAGE STORM SPEED STORM DIR
Year degrees north degrees east km km 1 degrees north degrees east degrees north degrees east kts degrees
1935 SI WA 1935-03-05 23:00:00 NR -13.00 124.10 214 205 __________O___ -1 -13.00 124.10 7 5 0
1935 SI WA 1935-03-06 00:00:00 NR -13.08 124.10 205 196 __________P___ -1 -13.08 124.10 7 6 0
1935 SI WA 01:00:00 NR -13.20 124.10 bom 196 187 ______O___P___ -1 -13.30 124.10 -13.16 124.10 7 5 0
1935 SI WA 03:00:00 NR -13.35 124.08 179 171 ______P___P___ -1 -13.42 124.06 -13.32 124.09 7 5 188
1935 SI WA 06:00:00 NR -13.57 124.04 171 157 ______P___P___ -1 -13.59 124.00 -13.55 124.07 7 4 193
1935 SI WA 09:00:00 NR -13.77 123.98 157 151 ______P___P___ -1 -13.77 123.93 -13.77 124.04 7 4 197
1935 SI WA 11:00:00 NR -13.89 123.94 160 160 ______P___O___ -1 -13.88 123.88 -13.90 124.00 7 4 202
1935 SI WA 12:00:00 NR -13.95 123.92 160 150 ______P___P___ -1 -13.93 123.85 -13.96 123.98 7 4 206
1935 SI WA 15:00:00 NR -14.11 123.82 160 155 ______P___P___ -1 -14.08 123.76 -14.13 123.89 7 4 214
1935 SI WA 18:00:00 NR -14.26 123.70 155 155 ______P___P___ -1 -14.23 123.65 -14.29 123.75 7 4 224
1935 SI WA 21:00:00 NR -14.39 123.54 165 163 ______P___P___ -1 -14.36 123.52 -14.42 123.56 7 4 234
1935 SI WA 23:00:00 NR -14.47 123.41 163 163 ______P___O___ -1 -14.43 123.41 -14.50 123.40 7 5 240
1935 SI WA 1935-03-07 00:00:00 NR -14.50 123.33 170 170 ______P___P___ -1 -14.47 123.36 -14.54 123.31 7 5 243
1935 SI WA 01:00:00 NR -14.54 123.25 bom 170 170 ______O___P___ -1 -14.50 123.30 -14.58 123.21 7 5 247
1935 SI WA 03:00:00 NR -14.61 123.08 178 178 ______P___P___ -1 -14.56 123.17 -14.66 122.99 7 6 251
1935 SI WA 06:00:00 NR -14.70 122.78 193 193 ______P___P___ -1 -14.63 122.96 -14.76 122.61 7 6 255
1935 SI WA 09:00:00 NR -14.77 122.45 195 195 ______P___P___ -1 -14.69 122.71 -14.85 122.19 7 7 258
1935 SI WA 11:00:00 NR -14.82 122.22 204 204 ______P___O___ -1 -14.73 122.53 -14.90 121.90 7 7 261
1935 SI WA 12:00:00 NR -14.83 122.10 208 208 ______P___P___ -1 -14.75 122.44 -14.91 121.76 7 7 265
1935 SI WA 15:00:00 NR -14.86 121.73 220 220 ______P___P___ -1 -14.80 122.14 -14.92 121.32 7 7 265
1935 SI WA 18:00:00 NR -14.90 121.35 247 247 ______P___P___ -1 -14.85 121.82 -14.94 120.87 7 8 263
1935 SI WA 21:00:00 NR -14.96 120.95 270 270 ______P___P___ -1 -14.91 121.48 -15.01 120.41 7 8 259
1935 SI WA 23:00:00 NR -15.02 120.67 286 286 ______P___O___ -1 -14.95 121.25 -15.10 120.10 7 8 254
1935 SI WA 1935-03-08 00:00:00 NR -15.07 120.54 293 293 ______P___P___ -1 -14.97 121.12 -15.17 119.96 7 8 249
1935 SI WA 01:00:00 NR -15.12 120.41 bom 301 301 ______O___P___ -1 -15.00 121.00 -15.24 119.81 7 8 246
1935 SI WA 03:00:00 NR -15.24 120.14 316 309 ______P___P___ -1 -15.06 120.76 -15.42 119.53 7 9 243
1935 SI WA 06:00:00 NR -15.45 119.73 336 330 ______P___P___ -1 -15.15 120.37 -15.75 119.09 7 9 241
1935 SI WA 09:00:00 NR -15.69 119.30 356 356 ______P___P___ -1 -15.25 119.96 -16.13 118.63 7 10 240
1935 SI WA 11:00:00 NR -15.86 118.99 375 375 ______P___O___ -1 -15.32 119.68 -16.40 118.30 7 11 240
1935 SI WA 12:00:00 NR -15.95 118.82 390 390 ______P___P___ -1 -15.36 119.54 -16.55 118.11 7 12 240
1935 SI WA 15:00:00 NR -16.25 118.30 433 422 ______P___P___ -1 -15.48 119.10 -17.02 117.50 7 12 239
1935 SI WA 18:00:00 NR -16.55 117.77 414 409 ______P___P___ -1 -15.62 118.66 -17.49 116.89 7 12 240
1935 SI WA 21:00:00 NR -16.83 117.26 411 397 ______P___P___ -1 -15.77 118.21 -17.89 116.32 7 11 241
1935 SI WA 23:00:00 NR -16.99 116.95 397 397 ______P___O___ -1 -15.88 117.90 -18.10 116.00 7 10 243
1935 SI WA 1935-03-09 00:00:00 NR -17.06 116.81 391 391 ______P___P___ -1 -15.94 117.75 -18.17 115.87 7 9 244
1935 SI WA 01:00:00 NR -17.11 116.68 bom 391 380 ______O___P___ -1 -16.00 117.60 -18.23 115.76 7 8 246
1935 SI WA 03:00:00 NR -17.22 116.43 381 371 ______P___P___ -1 -16.14 117.29 -18.31 115.56 7 8 247
1935 SI WA 06:00:00 NR -17.36 116.07 363 359 ______P___P___ -1 -16.36 116.81 -18.35 115.33 7 7 250
1935 SI WA 09:00:00 NR -17.47 115.73 362 362 ______P___P___ -1 -16.61 116.33 -18.33 115.13 7 7 251
1935 SI WA 11:00:00 NR -17.54 115.51 369 358 ______P___O___ -1 -16.77 116.01 -18.30 115.00 7 7 252
1935 SI WA 12:00:00 NR -17.58 115.39 362 362 ______P___P___ -1 -16.86 115.86 -18.30 114.92 7 7 252
1935 SI WA 15:00:00 NR -17.69 115.03 370 370 ______P___P___ -1 -17.11 115.39 -18.26 114.67 7 7 253
1935 SI WA 18:00:00 NR -17.78 114.68 377 377 ______P___P___ -1 -17.37 114.94 -18.20 114.42 7 7 254
1935 SI WA 21:00:00 NR -17.87 114.34 390 390 ______P___P___ -1 -17.61 114.52 -18.14 114.17 7 7 255
1935 SI WA 23:00:00 NR -17.93 114.12 401 398 ______P___O___ -1 -17.76 114.25 -18.10 114.00 7 6 254
1935 SI WA 1935-03-10 00:00:00 NR -17.96 114.02 398 398 ______P___P___ -1 -17.83 114.12 -18.09 113.92 7 6 254
1935 SI WA 01:00:00 NR -17.99 113.92 bom 404 404 ______O___P___ -1 -17.90 114.00 -18.07 113.83 7 6 255
1935 SI WA 03:00:00 NR -18.03 113.72 416 407 ______P___P___ -1 -18.02 113.77 -18.05 113.67 7 6 256
1935 SI WA 06:00:00 NR -18.10 113.44 425 420 ______P___P___ -1 -18.19 113.45 -18.02 113.42 7 5 255
1935 SI WA 09:00:00 NR -18.17 113.17 422 422 ______P___P___ -1 -18.34 113.17 -18.00 113.17 7 5 254
1935 SI WA 11:00:00 NR -18.22 113.00 426 426 ______P___O___ -1 -18.44 112.99 -18.00 113.00 7 5 255
1935 SI WA 12:00:00 NR -18.24 112.91 429 418 ______P___P___ -1 -18.49 112.91 -17.99 112.91 7 5 256
1935 SI WA 15:00:00 NR -18.30 112.66 424 421 ______P___P___ -1 -18.62 112.67 -17.98 112.65 7 5 255
1935 SI WA 18:00:00 NR -18.36 112.42 425 425 ______P___P___ -1 -18.74 112.45 -17.99 112.39 7 5 251
1935 SI WA 21:00:00 NR -18.45 112.20 434 424 ______P___P___ -1 -18.85 112.25 -18.04 112.15 7 4 246
1935 SI WA 23:00:00 NR -18.51 112.06 428 428 ______P___O___ -1 -18.93 112.12 -18.10 112.00 7 4 241
1935 SI WA 1935-03-11 00:00:00 NR -18.55 111.99 423 423 ______P___P___ -1 -18.96 112.06 -18.14 111.93 7 4 238
1935 SI WA 01:00:00 NR -18.59 111.93 bom 429 425 ______O___P___ -1 -19.00 112.00 -18.18 111.86 7 5 238
1935 SI WA 03:00:00 NR -18.67 111.79 425 421 ______P___P___ -1 -19.06 111.85 -18.29 111.73 7 5 235
1935 SI WA 06:00:00 NR -18.81 111.59 427 422 ______P___P___ -1 -19.14 111.64 -18.49 111.55 7 5 230
1935 SI WA 09:00:00 NR -18.97 111.41 422 420 ______P___P___ -1 -19.21 111.44 -18.73 111.39 7 5 225
1935 SI WA 11:00:00 NR -19.08 111.31 420 420 ______P___O___ -1 -19.27 111.31 -18.90 111.30 7 5 221
1935 SI WA 12:00:00 NR -19.14 111.25 420 411 ______P___P___ -1 -19.29 111.25 -19.00 111.25 7 5 216
1935 SI WA 15:00:00 NR -19.34 111.11 419 411 ______P___P___ -1 -19.38 111.08 -19.31 111.13 7 5 212
1935 SI WA 18:00:00 NR -19.55 110.99 404 398 ______P___P___ -1 -19.48 110.94 -19.63 111.03 7 5 207
1935 SI WA 21:00:00 NR -19.76 110.88 398 398 ______P___P___ -1 -19.60 110.82 -19.93 110.95 7 5 203
1935 SI WA 23:00:00 NR -19.90 110.83 400 400 ______P___O___ -1 -19.69 110.75 -20.10 110.90 7 4 203
1935 SI WA 1935-03-12 00:00:00 NR -19.95 110.80 394 394 ______P___P___ -1 -19.74 110.73 -20.17 110.87 7 4 206
1935 SI WA 01:00:00 NR -20.01 110.77 bom 394 388 ______O___P___ -1 -19.80 110.70 -20.23 110.85 7 4 203
1935 SI WA 03:00:00 NR -20.13 110.73 397 386 ______P___P___ -1 -19.92 110.66 -20.33 110.81 7 3 198
1935 SI WA 06:00:00 NR -20.29 110.68 386 386 ______P___P___ -1 -20.13 110.61 -20.45 110.75 7 3 194
1935 SI WA 07:00:00 NR -20.34 110.67 bom 386 381 ______O___P___ -1 -20.20 110.60 -20.48 110.74 7 3 196
1935 SI WA 09:00:00 NR -20.44 110.65 390 385 ______P___P___ -1 -20.34 110.58 -20.54 110.72 7 3 192
1935 SI WA 11:00:00 NR -20.54 110.63 385 380 ______P___O___ -1 -20.48 110.57 -20.60 110.70 7 3 189
1935 SI WA 12:00:00 NR -20.59 110.63 380 375 ______P___P___ -1 -20.55 110.56 -20.62 110.69 7 3 0
1935 SI WA 15:00:00 NR -20.72 110.62 375 363 ______P___P___ -1 -20.78 110.56 -20.66 110.67 7 3 0
1935 SI WA 18:00:00 NR -20.87 110.62 363 357 ______P___P___ -1 -21.01 110.57 -20.72 110.67 7 3 0
1935 SI WA 21:00:00 NR -21.05 110.63 352 346 ______P___P___ -1 -21.26 110.58 -20.85 110.68 7 4 177
1935 SI WA 23:00:00 NR -21.21 110.65 346 332 ______P___O___ -1 -21.43 110.59 -21.00 110.70 7 5 176
1935 SI WA 1935-03-13 00:00:00 NR -21.31 110.66 332 327 ______P___P___ -1 -21.51 110.60 -21.11 110.71 7 6 173
1935 SI WA 01:00:00 NR -21.41 110.67 bom 327 318 ______O___P___ -1 -21.60 110.60 -21.23 110.73 7 7 175
1935 SI WA 03:00:00 NR -21.65 110.69 318 305 ______P___P___ -1 -21.79 110.60 -21.50 110.77 7 8 176
1935 SI WA 06:00:00 NR -22.04 110.72 305 298 ______P___P___ -1 -22.09 110.60 -21.99 110.83 7 8 176
1935 SI WA 09:00:00 NR -22.47 110.74 297 297 ______P___P___ -1 -22.41 110.60 -22.53 110.88 7 9 177
1935 SI WA 11:00:00 NR -22.76 110.75 287 287 ______P___O___ -1 -22.62 110.60 -22.90 110.90 7 9 0
1935 SI WA 12:00:00 NR -22.91 110.75 299 292 ______P___P___ -1 -22.73 110.60 -23.09 110.90 7 9 0
1935 SI WA 15:00:00 NR -23.36 110.73 290 281 ______P___P___ -1 -23.04 110.60 -23.68 110.86 7 9 182
1935 SI WA 18:00:00 NR -23.80 110.70 281 274 ______P___P___ -1 -23.35 110.60 -24.25 110.80 7 8 184
1935 SI WA 21:00:00 NR -24.19 110.67 274 273 ______P___P___ -1 -23.65 110.60 -24.74 110.74 7 7 183
1935 SI WA 23:00:00 NR -24.41 110.65 273 273 ______P___O___ -1 -23.83 110.60 -25.00 110.70 7 6 182
1935 SI WA 1935-03-14 00:00:00 NR -24.50 110.64 283 283 ______P___P___ -1 -23.92 110.60 -25.09 110.69 7 5 188
1935 SI WA 01:00:00 NR -24.58 110.64 bom 284 284 ______O___P___ -1 -24.00 110.60 -25.16 110.68 7 4 0
1935 SI WA 03:00:00 NR -24.71 110.63 284 284 ______P___P___ -1 -24.16 110.60 -25.26 110.66 7 3 184
1935 SI WA 06:00:00 NR -24.85 110.62 288 288 ______P___P___ -1 -24.37 110.60 -25.34 110.64 7 3 185
1935 SI WA 09:00:00 NR -24.97 110.61 290 290 ______P___P___ -1 -24.56 110.60 -25.37 110.62 7 2 0
1935 SI WA 11:00:00 NR -25.04 110.60 290 288 ______P___O___ -1 -24.67 110.60 -25.40 110.60 7 2 0
1935 SI WA 12:00:00 NR -25.07 110.60 288 286 ______P___P___ -1 -24.72 110.60 -25.42 110.59 7 2 191
1935 SI WA 15:00:00 NR -25.17 110.58 286 284 ______P___P___ -1 -24.87 110.60 -25.47 110.56 7 2 191
1935 SI WA 18:00:00 NR -25.28 110.56 284 284 ______P___P___ -1 -25.01 110.60 -25.55 110.52 7 3 188
1935 SI WA 21:00:00 NR -25.43 110.53 290 285 ______P___P___ -1 -25.14 110.60 -25.72 110.46 7 4 192
1935 SI WA 23:00:00 NR -25.61 110.49 285 283 ______P___O___ -1 -25.22 110.60 -25.90 110.40 7 7 195
1935 SI WA 1935-03-15 00:00:00 NR -25.77 110.43 291 290 ______P___P___ -1 -25.26 110.60 -26.02 110.35 7 12 198
1935 SI WA 01:00:00 NR -25.99 110.36 bom 289 289 ______O___P___ -1 -25.30 110.60 -26.16 110.30 7 15 198
1935 SI WA 03:00:00 NR -26.47 110.17 309 309 __________P___ -1 -26.47 110.17 7 13 197
1935 SI WA 06:00:00 NR -27.03 109.99 336 336 __________P___ -1 -27.03 109.99 7 12 194
1935 SI WA 09:00:00 NR -27.66 109.85 380 380 __________P___ -1 -27.66 109.85 7 13 189
1935 SI WA 11:00:00 NR -28.10 109.80 399 399 __________O___ -1 -28.10 109.80 7 13 185
1935 SI WA 12:00:00 NR -28.32 109.79 411 411 __________P___ -1 -28.32 109.79 7 13 177
1935 SI WA 15:00:00 NR -28.99 109.84 440 433 __________P___ -1 -28.99 109.84 7 14 173
1935 SI WA 18:00:00 NR -29.67 109.98 445 445 __________P___ -1 -29.67 109.98 7 14 168
1935 SI WA 21:00:00 NR -30.35 110.16 456 455 __________P___ -1 -30.35 110.16 7 14 166
1935 SI WA 23:00:00 NR -30.80 110.30 458 __________O___ -1 -30.80 110.30 7 14 165